Sim-Planet VA

Sim-Planet Nouvel Horizon. By: Anthony Pay
Since 2020.




 METAR ET TAF INFORMATION
METAR FOR LROP
ADDS - METARS form results

(2039 UTC 28 January 2022)
Data provider http://aviationweather.gov/metar/data/
 
METAR text: LROP 282030Z 22008KT CAVOK M00/M07 Q1017 NOSIG
Conditions at: LROP (BUCHAREST/OTOPEN, RO) observed 2030 UTC 28 January 2022
Temperature: 0.0°C (32°F)
Dewpoint: -7.0°C (19°F) [RH = 59%]
Pressure (altimeter): 30.03 inches Hg (1017.0 mb)
Winds: from the SW (220 degrees) at 9 MPH (8 knots; 4.1 m/s)
Visibility: 6 or more miles (10+ km)
Ceiling: ceiling and visibility are OK
Clouds: unknown
Weather: no significant weather observed at this time

METAR text: LROP 282000Z 24008KT CAVOK 00/M07 Q1017 NOSIG
Conditions at: LROP (BUCHAREST/OTOPEN, RO) observed 2000 UTC 28 January 2022
Temperature: 0.0°C (32°F)
Dewpoint: -7.0°C (19°F) [RH = 59%]
Pressure (altimeter): 30.03 inches Hg (1017.0 mb)
Winds: from the WSW (240 degrees) at 9 MPH (8 knots; 4.1 m/s)
Visibility: 6 or more miles (10+ km)
Ceiling: ceiling and visibility are OK
Clouds: unknown
Weather: no significant weather observed at this time

Forecast for: LROP (BUCHAREST/OTOPEN, RO)
Text: TAF LROP 281700Z 2818/2918 VRB04KT CAVOK
Forecast period: 1800 UTC 28 January 2022 to 1800 UTC 29 January 2022
Forecast type: FROM: standard forecast or significant change
Winds: variable direction winds at 5 MPH (4 knots; 2.1 m/s)
Visibility: 6 or more miles (10+ km)
Ceiling: unknown
Clouds: missing
Weather: NSW  (no significant weather)

 AÉROPORT DE AÉROPORT

 INFORMATIONS DE PISTE
Piste 08L Longueur de la piste 11484 ft Largeur de la piste 148 ft
Élévation de la piste 313 ft Seuil de la piste déplacés 0 ft Runway heading 84
Piste 26R Longueur de la piste 11484 ft Largeur de la piste 148 ft
Élévation de la piste 303 ft Seuil de la piste déplacés 0 ft Runway heading 264
Piste 08R Longueur de la piste 11484 ft Largeur de la piste 148 ft
Élévation de la piste 314 ft Seuil de la piste déplacés 0 ft Runway heading 84
Piste 26L Longueur de la piste 11484 ft Largeur de la piste 148 ft
Élévation de la piste 303 ft Seuil de la piste déplacés 0 ft Runway heading 264

 AÉROPORT FRÉQUENCES
Type APP Nom BUCURESTI Féquence 118.25 MHZ
Type ATIS Nom OTOPENI AT Féquence 118.5 MHZ
Type GND Nom OTOPENI GN Féquence 121.7 MHZ
Type TWR Nom OTOPENI TW Féquence 120.9 MHZ

 SIDA DE NAVIGATION
Type VOR-DME Nom Floresti Féquence 112200 KHZ
Type NDB Nom Otopeni Féquence 349 KHZ
Type NDB Nom Otopeni Féquence 268 KHZ
Type NDB Nom Otopeni Féquence 370 KHZ
Type VOR-DME Nom Strejnic Féquence 113200 KHZ

Nos Partenaires